sensor_id;sensor_type;location;lat;lon;timestamp;P1;durP1;ratioP1;P2;durP2;ratioP2
62268;SDS011;56517;51.634;5.566;2023-04-03T00:00:09;24.65;;;14.27;;
62268;SDS011;56517;51.634;5.566;2023-04-03T00:01:30;18.65;;;13.68;;
62268;SDS011;56517;51.634;5.566;2023-04-03T00:02:51;26.83;;;16.25;;
62268;SDS011;56517;51.634;5.566;2023-04-03T00:04:12;20.05;;;13.43;;
62268;SDS011;56517;51.634;5.566;2023-04-03T00:05:33;21.80;;;13.10;;
62268;SDS011;56517;51.634;5.566;2023-04-03T00:06:54;26.85;;;14.82;;
62268;SDS011;56517;51.634;5.566;2023-04-03T00:08:15;19.77;;;13.70;;
62268;SDS011;56517;51.634;5.566;2023-04-03T00:09:37;19.38;;;14.02;;
62268;SDS011;56517;51.634;5.566;2023-04-03T00:10:58;20.90;;;13.07;;
62268;SDS011;56517;51.634;5.566;2023-04-03T00:12:19;18.70;;;13.02;;
62268;SDS011;56517;51.634;5.566;2023-04-03T00:13:40;19.83;;;13.77;;
62268;SDS011;56517;51.634;5.566;2023-04-03T00:15:01;24.20;;;14.20;;
62268;SDS011;56517;51.634;5.566;2023-04-03T00:16:22;23.58;;;14.60;;
62268;SDS011;56517;51.634;5.566;2023-04-03T00:17:43;24.33;;;13.88;;
62268;SDS011;56517;51.634;5.566;2023-04-03T00:19:04;24.95;;;15.38;;
62268;SDS011;56517;51.634;5.566;2023-04-03T00:20:26;22.83;;;15.68;;
62268;SDS011;56517;51.634;5.566;2023-04-03T00:21:47;24.70;;;14.48;;
62268;SDS011;56517;51.634;5.566;2023-04-03T00:23:09;25.05;;;15.30;;
62268;SDS011;56517;51.634;5.566;2023-04-03T00:24:30;23.35;;;13.27;;
62268;SDS011;56517;51.634;5.566;2023-04-03T00:25:51;19.30;;;12.77;;
62268;SDS011;56517;51.634;5.566;2023-04-03T00:27:12;22.30;;;14.68;;
62268;SDS011;56517;51.634;5.566;2023-04-03T00:28:36;33.88;;;17.77;;
62268;SDS011;56517;51.634;5.566;2023-04-03T00:29:57;23.23;;;13.57;;
62268;SDS011;56517;51.634;5.566;2023-04-03T00:31:18;22.92;;;14.50;;
62268;SDS011;56517;51.634;5.566;2023-04-03T00:32:39;17.70;;;13.60;;
62268;SDS011;56517;51.634;5.566;2023-04-03T00:34:00;20.55;;;13.43;;
62268;SDS011;56517;51.634;5.566;2023-04-03T00:35:22;20.67;;;14.68;;
62268;SDS011;56517;51.634;5.566;2023-04-03T00:36:43;23.35;;;13.68;;
62268;SDS011;56517;51.634;5.566;2023-04-03T00:38:04;25.02;;;13.80;;
62268;SDS011;56517;51.634;5.566;2023-04-03T00:39:25;18.33;;;12.70;;
62268;SDS011;56517;51.634;5.566;2023-04-03T00:40:47;16.58;;;12.82;;
62268;SDS011;56517;51.634;5.566;2023-04-03T00:42:08;20.30;;;14.20;;
62268;SDS011;56517;51.634;5.566;2023-04-03T00:43:29;22.10;;;13.98;;
62268;SDS011;56517;51.634;5.566;2023-04-03T00:46:14;23.42;;;14.93;;
62268;SDS011;56517;51.634;5.566;2023-04-03T00:47:35;20.70;;;14.55;;
62268;SDS011;56517;51.634;5.566;2023-04-03T00:48:56;19.10;;;13.20;;
62268;SDS011;56517;51.634;5.566;2023-04-03T00:50:17;25.42;;;14.40;;
62268;SDS011;56517;51.634;5.566;2023-04-03T00:51:38;23.00;;;14.43;;
62268;SDS011;56517;51.634;5.566;2023-04-03T00:53:01;23.63;;;15.27;;
62268;SDS011;56517;51.634;5.566;2023-04-03T00:54:23;23.95;;;14.13;;
62268;SDS011;56517;51.634;5.566;2023-04-03T00:55:46;24.05;;;14.07;;
62268;SDS011;56517;51.634;5.566;2023-04-03T00:57:07;25.45;;;14.23;;
62268;SDS011;56517;51.634;5.566;2023-04-03T00:58:34;20.35;;;13.85;;
62268;SDS011;56517;51.634;5.566;2023-04-03T00:59:59;21.25;;;13.90;;
62268;SDS011;56517;51.634;5.566;2023-04-03T01:01:22;20.38;;;13.70;;
62268;SDS011;56517;51.634;5.566;2023-04-03T01:02:44;22.75;;;14.80;;
62268;SDS011;56517;51.634;5.566;2023-04-03T02:18:18;25.45;;;12.05;;
62268;SDS011;56517;51.634;5.566;2023-04-03T02:19:39;18.60;;;10.77;;
62268;SDS011;56517;51.634;5.566;2023-04-03T02:21:00;13.63;;;9.47;;
62268;SDS011;56517;51.634;5.566;2023-04-03T02:22:21;14.00;;;9.93;;
62268;SDS011;56517;51.634;5.566;2023-04-03T02:23:42;21.08;;;11.90;;
62268;SDS011;56517;51.634;5.566;2023-04-03T02:25:03;20.77;;;10.60;;
62268;SDS011;56517;51.634;5.566;2023-04-03T02:26:24;15.55;;;10.10;;
62268;SDS011;56517;51.634;5.566;2023-04-03T02:27:46;20.15;;;11.13;;
62268;SDS011;56517;51.634;5.566;2023-04-03T02:29:07;18.85;;;10.25;;
62268;SDS011;56517;51.634;5.566;2023-04-03T02:30:28;16.05;;;10.50;;
62268;SDS011;56517;51.634;5.566;2023-04-03T02:31:49;20.80;;;10.77;;
62268;SDS011;56517;51.634;5.566;2023-04-03T02:33:10;22.35;;;11.13;;
62268;SDS011;56517;51.634;5.566;2023-04-03T02:34:31;22.83;;;12.07;;
62268;SDS011;56517;51.634;5.566;2023-04-03T02:35:54;17.55;;;10.75;;
62268;SDS011;56517;51.634;5.566;2023-04-03T02:38:35;21.80;;;10.77;;
62268;SDS011;56517;51.634;5.566;2023-04-03T02:39:56;16.88;;;10.50;;
62268;SDS011;56517;51.634;5.566;2023-04-03T02:41:17;17.88;;;11.20;;
62268;SDS011;56517;51.634;5.566;2023-04-03T02:42:38;16.05;;;10.38;;
62268;SDS011;56517;51.634;5.566;2023-04-03T02:44:00;20.15;;;11.55;;
62268;SDS011;56517;51.634;5.566;2023-04-03T02:45:21;24.73;;;12.10;;
62268;SDS011;56517;51.634;5.566;2023-04-03T02:46:42;16.90;;;10.55;;
62268;SDS011;56517;51.634;5.566;2023-04-03T02:48:05;18.17;;;10.77;;
62268;SDS011;56517;51.634;5.566;2023-04-03T02:49:27;30.70;;;14.70;;
62268;SDS011;56517;51.634;5.566;2023-04-03T02:50:48;19.58;;;10.68;;
62268;SDS011;56517;51.634;5.566;2023-04-03T02:52:09;14.98;;;9.60;;
62268;SDS011;56517;51.634;5.566;2023-04-03T02:53:30;17.88;;;10.30;;
62268;SDS011;56517;51.634;5.566;2023-04-03T02:54:50;15.65;;;10.20;;
62268;SDS011;56517;51.634;5.566;2023-04-03T02:56:11;14.90;;;10.35;;
62268;SDS011;56517;51.634;5.566;2023-04-03T02:57:32;13.57;;;9.23;;
62268;SDS011;56517;51.634;5.566;2023-04-03T02:58:53;16.17;;;10.25;;
62268;SDS011;56517;51.634;5.566;2023-04-03T03:00:14;15.55;;;10.60;;
62268;SDS011;56517;51.634;5.566;2023-04-03T03:01:35;16.85;;;10.48;;
62268;SDS011;56517;51.634;5.566;2023-04-03T03:02:56;15.65;;;9.93;;
62268;SDS011;56517;51.634;5.566;2023-04-03T03:04:18;15.18;;;9.02;;
62268;SDS011;56517;51.634;5.566;2023-04-03T03:05:39;16.88;;;10.02;;
62268;SDS011;56517;51.634;5.566;2023-04-03T03:07:00;17.13;;;10.60;;
62268;SDS011;56517;51.634;5.566;2023-04-03T03:08:21;16.80;;;10.52;;
62268;SDS011;56517;51.634;5.566;2023-04-03T03:09:41;15.88;;;10.50;;
62268;SDS011;56517;51.634;5.566;2023-04-03T03:11:03;13.68;;;9.18;;
62268;SDS011;56517;51.634;5.566;2023-04-03T03:12:24;14.17;;;10.30;;
62268;SDS011;56517;51.634;5.566;2023-04-03T03:13:45;18.85;;;10.93;;
62268;SDS011;56517;51.634;5.566;2023-04-03T03:15:06;13.85;;;9.68;;
62268;SDS011;56517;51.634;5.566;2023-04-03T03:16:27;12.40;;;9.48;;
62268;SDS011;56517;51.634;5.566;2023-04-03T03:17:48;17.92;;;9.77;;
62268;SDS011;56517;51.634;5.566;2023-04-03T03:19:09;10.80;;;9.40;;
62268;SDS011;56517;51.634;5.566;2023-04-03T03:20:30;14.77;;;9.88;;
62268;SDS011;56517;51.634;5.566;2023-04-03T03:21:51;15.18;;;9.15;;
62268;SDS011;56517;51.634;5.566;2023-04-03T03:23:12;14.15;;;9.27;;
62268;SDS011;56517;51.634;5.566;2023-04-03T03:24:33;15.10;;;9.35;;
62268;SDS011;56517;51.634;5.566;2023-04-03T03:25:58;11.38;;;8.40;;
62268;SDS011;56517;51.634;5.566;2023-04-03T03:27:19;12.48;;;9.32;;
62268;SDS011;56517;51.634;5.566;2023-04-03T03:28:40;14.52;;;9.73;;
62268;SDS011;56517;51.634;5.566;2023-04-03T03:30:01;11.80;;;8.90;;
62268;SDS011;56517;51.634;5.566;2023-04-03T03:31:22;17.65;;;9.07;;
62268;SDS011;56517;51.634;5.566;2023-04-03T03:32:43;13.55;;;8.98;;
62268;SDS011;56517;51.634;5.566;2023-04-03T03:34:04;13.32;;;8.27;;
62268;SDS011;56517;51.634;5.566;2023-04-03T03:35:25;15.13;;;9.98;;
62268;SDS011;56517;51.634;5.566;2023-04-03T03:36:46;13.07;;;8.60;;
62268;SDS011;56517;51.634;5.566;2023-04-03T03:38:07;17.10;;;9.73;;
62268;SDS011;56517;51.634;5.566;2023-04-03T03:39:28;21.30;;;9.98;;
62268;SDS011;56517;51.634;5.566;2023-04-03T03:40:49;17.77;;;10.65;;
62268;SDS011;56517;51.634;5.566;2023-04-03T03:42:10;11.07;;;9.10;;
62268;SDS011;56517;51.634;5.566;2023-04-03T03:43:32;17.52;;;9.77;;
62268;SDS011;56517;51.634;5.566;2023-04-03T03:46:46;10.88;;;8.73;;
62268;SDS011;56517;51.634;5.566;2023-04-03T03:48:07;19.27;;;9.68;;
62268;SDS011;56517;51.634;5.566;2023-04-03T03:49:38;15.65;;;9.20;;
62268;SDS011;56517;51.634;5.566;2023-04-03T03:50:59;19.58;;;10.73;;
62268;SDS011;56517;51.634;5.566;2023-04-03T03:52:20;19.48;;;10.32;;
62268;SDS011;56517;51.634;5.566;2023-04-03T03:53:41;20.10;;;10.50;;
62268;SDS011;56517;51.634;5.566;2023-04-03T03:55:02;15.50;;;9.90;;
62268;SDS011;56517;51.634;5.566;2023-04-03T03:56:23;16.58;;;10.02;;
62268;SDS011;56517;51.634;5.566;2023-04-03T03:57:44;20.23;;;9.80;;
62268;SDS011;56517;51.634;5.566;2023-04-03T03:59:05;20.55;;;11.27;;
62268;SDS011;56517;51.634;5.566;2023-04-03T04:00:27;18.17;;;10.32;;
62268;SDS011;56517;51.634;5.566;2023-04-03T04:01:48;13.23;;;9.75;;
62268;SDS011;56517;51.634;5.566;2023-04-03T04:03:09;14.30;;;9.43;;
62268;SDS011;56517;51.634;5.566;2023-04-03T04:04:30;20.33;;;10.68;;
62268;SDS011;56517;51.634;5.566;2023-04-03T04:05:51;17.77;;;10.10;;
62268;SDS011;56517;51.634;5.566;2023-04-03T04:07:12;18.70;;;9.13;;
62268;SDS011;56517;51.634;5.566;2023-04-03T04:08:33;17.60;;;9.82;;
62268;SDS011;56517;51.634;5.566;2023-04-03T04:09:54;22.30;;;11.27;;
62268;SDS011;56517;51.634;5.566;2023-04-03T04:11:15;19.90;;;9.52;;
62268;SDS011;56517;51.634;5.566;2023-04-03T04:12:36;10.48;;;8.90;;
62268;SDS011;56517;51.634;5.566;2023-04-03T04:13:57;19.10;;;8.73;;
62268;SDS011;56517;51.634;5.566;2023-04-03T04:15:18;13.40;;;9.52;;
62268;SDS011;56517;51.634;5.566;2023-04-03T04:16:39;20.80;;;10.35;;
62268;SDS011;56517;51.634;5.566;2023-04-03T04:18:00;19.75;;;9.95;;
62268;SDS011;56517;51.634;5.566;2023-04-03T04:19:21;15.85;;;10.25;;
62268;SDS011;56517;51.634;5.566;2023-04-03T04:20:42;15.65;;;9.23;;
62268;SDS011;56517;51.634;5.566;2023-04-03T04:22:05;15.10;;;9.32;;
62268;SDS011;56517;51.634;5.566;2023-04-03T04:23:26;16.35;;;9.45;;
62268;SDS011;56517;51.634;5.566;2023-04-03T04:24:47;21.52;;;9.82;;
62268;SDS011;56517;51.634;5.566;2023-04-03T04:26:08;15.38;;;9.45;;
62268;SDS011;56517;51.634;5.566;2023-04-03T04:27:29;18.45;;;10.30;;
62268;SDS011;56517;51.634;5.566;2023-04-03T04:28:50;13.95;;;9.55;;
62268;SDS011;56517;51.634;5.566;2023-04-03T04:30:11;22.08;;;10.95;;
62268;SDS011;56517;51.634;5.566;2023-04-03T04:31:32;18.13;;;9.63;;
62268;SDS011;56517;51.634;5.566;2023-04-03T04:32:53;13.18;;;9.23;;
62268;SDS011;56517;51.634;5.566;2023-04-03T04:34:14;12.52;;;9.05;;
62268;SDS011;56517;51.634;5.566;2023-04-03T04:35:35;19.80;;;10.25;;
62268;SDS011;56517;51.634;5.566;2023-04-03T04:36:56;11.82;;;8.98;;
62268;SDS011;56517;51.634;5.566;2023-04-03T04:38:17;14.38;;;9.57;;
62268;SDS011;56517;51.634;5.566;2023-04-03T04:39:38;19.17;;;10.40;;
62268;SDS011;56517;51.634;5.566;2023-04-03T04:40:59;14.95;;;9.90;;
62268;SDS011;56517;51.634;5.566;2023-04-03T04:42:20;15.07;;;9.57;;
62268;SDS011;56517;51.634;5.566;2023-04-03T04:43:41;16.85;;;10.15;;
62268;SDS011;56517;51.634;5.566;2023-04-03T04:45:02;12.80;;;9.88;;
62268;SDS011;56517;51.634;5.566;2023-04-03T04:46:23;19.92;;;11.43;;
62268;SDS011;56517;51.634;5.566;2023-04-03T04:47:47;18.67;;;10.30;;
62268;SDS011;56517;51.634;5.566;2023-04-03T04:49:12;16.63;;;10.30;;
62268;SDS011;56517;51.634;5.566;2023-04-03T04:50:33;15.45;;;9.80;;
62268;SDS011;56517;51.634;5.566;2023-04-03T04:51:54;14.13;;;9.52;;
62268;SDS011;56517;51.634;5.566;2023-04-03T04:53:15;19.55;;;10.20;;
62268;SDS011;56517;51.634;5.566;2023-04-03T04:54:36;18.48;;;10.88;;
62268;SDS011;56517;51.634;5.566;2023-04-03T04:55:57;14.57;;;10.48;;
62268;SDS011;56517;51.634;5.566;2023-04-03T04:57:18;14.27;;;9.25;;
62268;SDS011;56517;51.634;5.566;2023-04-03T04:58:39;17.08;;;9.57;;
62268;SDS011;56517;51.634;5.566;2023-04-03T05:00:00;15.40;;;8.88;;
62268;SDS011;56517;51.634;5.566;2023-04-03T05:01:21;18.70;;;9.00;;
62268;SDS011;56517;51.634;5.566;2023-04-03T05:02:42;20.42;;;10.10;;
62268;SDS011;56517;51.634;5.566;2023-04-03T05:04:05;15.50;;;9.68;;
62268;SDS011;56517;51.634;5.566;2023-04-03T05:05:26;10.75;;;9.02;;
62268;SDS011;56517;51.634;5.566;2023-04-03T05:06:47;16.60;;;9.57;;
62268;SDS011;56517;51.634;5.566;2023-04-03T05:08:08;13.82;;;9.20;;
62268;SDS011;56517;51.634;5.566;2023-04-03T05:09:29;11.40;;;8.57;;
62268;SDS011;56517;51.634;5.566;2023-04-03T05:10:50;14.52;;;9.82;;
62268;SDS011;56517;51.634;5.566;2023-04-03T05:12:11;16.15;;;9.80;;
62268;SDS011;56517;51.634;5.566;2023-04-03T05:13:32;12.98;;;8.82;;
62268;SDS011;56517;51.634;5.566;2023-04-03T05:14:53;11.45;;;9.27;;
62268;SDS011;56517;51.634;5.566;2023-04-03T05:16:14;14.18;;;8.80;;
62268;SDS011;56517;51.634;5.566;2023-04-03T05:17:35;19.95;;;9.80;;
62268;SDS011;56517;51.634;5.566;2023-04-03T05:18:59;18.00;;;9.75;;
62268;SDS011;56517;51.634;5.566;2023-04-03T05:20:20;28.42;;;13.20;;
62268;SDS011;56517;51.634;5.566;2023-04-03T05:21:41;13.38;;;10.05;;
62268;SDS011;56517;51.634;5.566;2023-04-03T05:23:02;14.65;;;8.95;;
62268;SDS011;56517;51.634;5.566;2023-04-03T05:24:23;18.67;;;9.95;;
62268;SDS011;56517;51.634;5.566;2023-04-03T05:25:44;13.93;;;9.32;;
62268;SDS011;56517;51.634;5.566;2023-04-03T05:27:07;17.45;;;10.18;;
62268;SDS011;56517;51.634;5.566;2023-04-03T05:28:28;15.50;;;9.05;;
62268;SDS011;56517;51.634;5.566;2023-04-03T05:29:49;18.20;;;9.32;;
62268;SDS011;56517;51.634;5.566;2023-04-03T05:31:10;16.25;;;9.30;;
62268;SDS011;56517;51.634;5.566;2023-04-03T05:32:32;16.98;;;9.38;;
62268;SDS011;56517;51.634;5.566;2023-04-03T05:33:53;18.07;;;10.13;;
62268;SDS011;56517;51.634;5.566;2023-04-03T05:35:14;16.95;;;9.55;;
62268;SDS011;56517;51.634;5.566;2023-04-03T05:36:35;17.45;;;10.23;;
62268;SDS011;56517;51.634;5.566;2023-04-03T05:37:57;21.05;;;10.55;;
62268;SDS011;56517;51.634;5.566;2023-04-03T05:39:18;18.05;;;9.52;;
62268;SDS011;56517;51.634;5.566;2023-04-03T05:40:57;20.48;;;10.07;;
62268;SDS011;56517;51.634;5.566;2023-04-03T05:42:18;24.52;;;10.10;;
62268;SDS011;56517;51.634;5.566;2023-04-03T05:43:39;18.23;;;10.07;;
62268;SDS011;56517;51.634;5.566;2023-04-03T05:45:00;17.35;;;9.98;;
62268;SDS011;56517;51.634;5.566;2023-04-03T05:46:21;20.50;;;9.50;;
62268;SDS011;56517;51.634;5.566;2023-04-03T05:47:42;21.23;;;9.77;;
62268;SDS011;56517;51.634;5.566;2023-04-03T05:49:03;19.23;;;9.77;;
62268;SDS011;56517;51.634;5.566;2023-04-03T05:50:24;27.98;;;12.68;;
62268;SDS011;56517;51.634;5.566;2023-04-03T05:51:45;12.70;;;8.98;;
62268;SDS011;56517;51.634;5.566;2023-04-03T05:53:17;15.50;;;9.45;;
62268;SDS011;56517;51.634;5.566;2023-04-03T05:54:48;16.90;;;10.13;;
62268;SDS011;56517;51.634;5.566;2023-04-03T05:56:09;21.45;;;9.35;;
62268;SDS011;56517;51.634;5.566;2023-04-03T05:57:36;20.02;;;9.73;;
62268;SDS011;56517;51.634;5.566;2023-04-03T05:59:03;18.83;;;9.30;;
62268;SDS011;56517;51.634;5.566;2023-04-03T06:00:24;38.03;;;16.63;;
62268;SDS011;56517;51.634;5.566;2023-04-03T06:01:46;21.13;;;9.68;;
62268;SDS011;56517;51.634;5.566;2023-04-03T06:03:09;18.10;;;9.68;;
62268;SDS011;56517;51.634;5.566;2023-04-03T06:04:33;18.52;;;9.13;;
62268;SDS011;56517;51.634;5.566;2023-04-03T06:05:57;18.30;;;9.75;;
62268;SDS011;56517;51.634;5.566;2023-04-03T06:07:18;22.38;;;9.02;;
62268;SDS011;56517;51.634;5.566;2023-04-03T06:08:41;15.55;;;9.05;;
62268;SDS011;56517;51.634;5.566;2023-04-03T06:10:04;20.73;;;9.80;;
62268;SDS011;56517;51.634;5.566;2023-04-03T06:11:26;15.82;;;10.00;;
62268;SDS011;56517;51.634;5.566;2023-04-03T06:12:47;19.02;;;9.55;;
62268;SDS011;56517;51.634;5.566;2023-04-03T06:14:08;21.88;;;9.65;;
62268;SDS011;56517;51.634;5.566;2023-04-03T06:15:29;12.48;;;8.95;;
62268;SDS011;56517;51.634;5.566;2023-04-03T06:16:50;15.95;;;9.52;;
62268;SDS011;56517;51.634;5.566;2023-04-03T06:18:11;21.98;;;10.77;;
62268;SDS011;56517;51.634;5.566;2023-04-03T06:19:32;17.45;;;9.77;;
62268;SDS011;56517;51.634;5.566;2023-04-03T06:20:53;18.75;;;8.73;;
62268;SDS011;56517;51.634;5.566;2023-04-03T06:22:15;15.90;;;9.00;;
62268;SDS011;56517;51.634;5.566;2023-04-03T06:23:41;17.83;;;9.33;;
62268;SDS011;56517;51.634;5.566;2023-04-03T06:25:02;17.98;;;9.70;;
62268;SDS011;56517;51.634;5.566;2023-04-03T06:28:35;22.73;;;10.85;;
62268;SDS011;56517;51.634;5.566;2023-04-03T06:30:16;19.95;;;10.30;;
62268;SDS011;56517;51.634;5.566;2023-04-03T06:31:57;15.68;;;8.85;;
62268;SDS011;56517;51.634;5.566;2023-04-03T06:37:02;13.65;;;8.40;;
62268;SDS011;56517;51.634;5.566;2023-04-03T06:47:10;31.95;;;10.73;;
62268;SDS011;56517;51.634;5.566;2023-04-03T06:50:49;19.63;;;8.82;;
62268;SDS011;56517;51.634;5.566;2023-04-03T06:52:10;15.95;;;9.40;;
62268;SDS011;56517;51.634;5.566;2023-04-03T07:01:38;17.23;;;7.43;;
62268;SDS011;56517;51.634;5.566;2023-04-03T07:03:02;13.75;;;6.93;;
62268;SDS011;56517;51.634;5.566;2023-04-03T07:04:23;11.23;;;6.32;;
62268;SDS011;56517;51.634;5.566;2023-04-03T07:05:44;14.90;;;6.35;;
62268;SDS011;56517;51.634;5.566;2023-04-03T07:09:02;12.98;;;5.70;;
62268;SDS011;56517;51.634;5.566;2023-04-03T07:10:28;11.82;;;5.60;;
62268;SDS011;56517;51.634;5.566;2023-04-03T07:12:01;10.68;;;4.95;;
62268;SDS011;56517;51.634;5.566;2023-04-03T07:15:14;9.90;;;5.03;;
62268;SDS011;56517;51.634;5.566;2023-04-03T07:31:05;12.23;;;6.35;;
62268;SDS011;56517;51.634;5.566;2023-04-03T07:32:27;18.10;;;7.28;;
62268;SDS011;56517;51.634;5.566;2023-04-03T07:33:48;13.73;;;6.25;;
62268;SDS011;56517;51.634;5.566;2023-04-03T07:35:09;11.85;;;6.43;;
62268;SDS011;56517;51.634;5.566;2023-04-03T07:36:30;8.98;;;5.85;;
62268;SDS011;56517;51.634;5.566;2023-04-03T07:37:53;7.07;;;5.00;;
62268;SDS011;56517;51.634;5.566;2023-04-03T07:39:14;8.48;;;5.60;;
62268;SDS011;56517;51.634;5.566;2023-04-03T07:40:36;8.38;;;5.45;;
62268;SDS011;56517;51.634;5.566;2023-04-03T07:41:57;12.82;;;6.72;;
62268;SDS011;56517;51.634;5.566;2023-04-03T07:43:25;9.82;;;6.22;;
62268;SDS011;56517;51.634;5.566;2023-04-03T07:44:53;15.50;;;6.20;;
62268;SDS011;56517;51.634;5.566;2023-04-03T07:46:15;14.15;;;6.07;;
62268;SDS011;56517;51.634;5.566;2023-04-03T07:47:35;8.40;;;5.05;;
62268;SDS011;56517;51.634;5.566;2023-04-03T07:48:58;14.07;;;5.55;;
62268;SDS011;56517;51.634;5.566;2023-04-03T08:08:07;16.30;;;5.45;;
62268;SDS011;56517;51.634;5.566;2023-04-03T08:09:28;10.88;;;4.55;;
62268;SDS011;56517;51.634;5.566;2023-04-03T08:13:08;13.75;;;4.25;;
62268;SDS011;56517;51.634;5.566;2023-04-03T08:14:42;13.32;;;4.50;;
62268;SDS011;56517;51.634;5.566;2023-04-03T08:17:44;9.73;;;4.13;;
62268;SDS011;56517;51.634;5.566;2023-04-03T08:19:11;19.30;;;6.13;;
62268;SDS011;56517;51.634;5.566;2023-04-03T08:20:58;12.27;;;3.92;;
62268;SDS011;56517;51.634;5.566;2023-04-03T08:22:37;11.35;;;4.35;;
62268;SDS011;56517;51.634;5.566;2023-04-03T08:28:00;11.32;;;4.85;;
62268;SDS011;56517;51.634;5.566;2023-04-03T08:29:23;11.38;;;4.30;;
62268;SDS011;56517;51.634;5.566;2023-04-03T08:30:44;8.98;;;3.55;;
62268;SDS011;56517;51.634;5.566;2023-04-03T08:32:06;18.50;;;6.35;;
62268;SDS011;56517;51.634;5.566;2023-04-03T08:33:27;10.88;;;4.15;;
62268;SDS011;56517;51.634;5.566;2023-04-03T08:36:59;8.88;;;3.70;;
62268;SDS011;56517;51.634;5.566;2023-04-03T08:38:20;12.48;;;4.68;;
62268;SDS011;56517;51.634;5.566;2023-04-03T08:39:50;8.75;;;3.95;;
62268;SDS011;56517;51.634;5.566;2023-04-03T08:41:15;7.47;;;3.58;;
62268;SDS011;56517;51.634;5.566;2023-04-03T08:46:14;9.60;;;3.70;;
62268;SDS011;56517;51.634;5.566;2023-04-03T08:47:41;9.90;;;4.05;;
62268;SDS011;56517;51.634;5.566;2023-04-03T08:49:03;6.93;;;3.42;;
62268;SDS011;56517;51.634;5.566;2023-04-03T08:50:30;9.82;;;3.33;;
62268;SDS011;56517;51.634;5.566;2023-04-03T08:51:52;6.53;;;3.60;;
62268;SDS011;56517;51.634;5.566;2023-04-03T08:53:14;6.78;;;3.47;;
62268;SDS011;56517;51.634;5.566;2023-04-03T08:54:49;6.43;;;3.28;;
62268;SDS011;56517;51.634;5.566;2023-04-03T09:03:46;7.47;;;3.78;;
62268;SDS011;56517;51.634;5.566;2023-04-03T09:07:25;6.07;;;3.50;;
62268;SDS011;56517;51.634;5.566;2023-04-03T09:09:15;4.75;;;3.20;;
62268;SDS011;56517;51.634;5.566;2023-04-03T09:10:48;3.70;;;3.05;;
62268;SDS011;56517;51.634;5.566;2023-04-03T09:12:32;8.63;;;4.22;;
62268;SDS011;56517;51.634;5.566;2023-04-03T09:15:19;6.15;;;3.28;;
62268;SDS011;56517;51.634;5.566;2023-04-03T09:18:23;10.88;;;4.70;;
62268;SDS011;56517;51.634;5.566;2023-04-03T11:52:08;33.22;;;12.43;;
62268;SDS011;56517;51.634;5.566;2023-04-03T11:53:39;13.20;;;6.40;;
62268;SDS011;56517;51.634;5.566;2023-04-03T11:55:00;10.82;;;5.40;;
62268;SDS011;56517;51.634;5.566;2023-04-03T12:04:05;8.13;;;5.03;;
62268;SDS011;56517;51.634;5.566;2023-04-03T12:05:37;9.00;;;4.90;;
62268;SDS011;56517;51.634;5.566;2023-04-03T12:07:08;9.32;;;5.63;;
62268;SDS011;56517;51.634;5.566;2023-04-03T12:10:30;14.82;;;5.90;;
62268;SDS011;56517;51.634;5.566;2023-04-03T12:12:01;16.20;;;6.68;;
62268;SDS011;56517;51.634;5.566;2023-04-03T12:16:27;11.55;;;5.70;;
62268;SDS011;56517;51.634;5.566;2023-04-03T12:17:49;11.85;;;5.60;;
62268;SDS011;56517;51.634;5.566;2023-04-03T12:19:32;10.18;;;5.65;;
62268;SDS011;56517;51.634;5.566;2023-04-03T12:20:57;8.85;;;5.65;;
62268;SDS011;56517;51.634;5.566;2023-04-03T12:22:23;13.52;;;6.07;;
62268;SDS011;56517;51.634;5.566;2023-04-03T12:25:59;12.15;;;6.38;;
62268;SDS011;56517;51.634;5.566;2023-04-03T12:27:34;14.48;;;5.82;;
62268;SDS011;56517;51.634;5.566;2023-04-03T12:30:56;10.43;;;5.47;;
62268;SDS011;56517;51.634;5.566;2023-04-03T12:34:12;9.80;;;5.70;;
62268;SDS011;56517;51.634;5.566;2023-04-03T12:35:55;10.75;;;5.22;;
62268;SDS011;56517;51.634;5.566;2023-04-03T12:41:52;9.88;;;5.40;;
62268;SDS011;56517;51.634;5.566;2023-04-03T12:45:32;9.45;;;5.10;;
62268;SDS011;56517;51.634;5.566;2023-04-03T12:47:01;13.30;;;6.15;;
62268;SDS011;56517;51.634;5.566;2023-04-03T12:50:04;9.07;;;5.63;;
62268;SDS011;56517;51.634;5.566;2023-04-03T12:51:48;9.35;;;5.43;;
62268;SDS011;56517;51.634;5.566;2023-04-03T12:53:21;16.10;;;5.78;;
62268;SDS011;56517;51.634;5.566;2023-04-03T12:54:56;11.77;;;5.75;;
62268;SDS011;56517;51.634;5.566;2023-04-03T12:59:59;7.20;;;5.03;;
62268;SDS011;56517;51.634;5.566;2023-04-03T13:01:56;5.55;;;4.18;;
62268;SDS011;56517;51.634;5.566;2023-04-03T13:05:32;12.65;;;6.55;;
62268;SDS011;56517;51.634;5.566;2023-04-03T13:06:56;7.93;;;4.95;;
62268;SDS011;56517;51.634;5.566;2023-04-03T13:17:41;22.15;;;8.05;;
62268;SDS011;56517;51.634;5.566;2023-04-03T13:19:21;8.60;;;5.22;;
62268;SDS011;56517;51.634;5.566;2023-04-03T13:23:34;6.65;;;4.38;;
62268;SDS011;56517;51.634;5.566;2023-04-03T13:49:58;8.45;;;4.95;;
62268;SDS011;56517;51.634;5.566;2023-04-03T14:03:16;6.97;;;4.80;;
62268;SDS011;56517;51.634;5.566;2023-04-03T14:04:50;14.45;;;5.90;;
62268;SDS011;56517;51.634;5.566;2023-04-03T14:06:14;7.97;;;4.43;;
62268;SDS011;56517;51.634;5.566;2023-04-03T14:07:39;7.40;;;4.53;;
62268;SDS011;56517;51.634;5.566;2023-04-03T14:11:05;9.25;;;5.20;;
62268;SDS011;56517;51.634;5.566;2023-04-03T14:12:43;5.97;;;4.10;;
62268;SDS011;56517;51.634;5.566;2023-04-03T14:14:09;8.50;;;4.85;;
62268;SDS011;56517;51.634;5.566;2023-04-03T14:15:30;7.35;;;4.88;;
62268;SDS011;56517;51.634;5.566;2023-04-03T14:16:53;5.70;;;4.45;;
62268;SDS011;56517;51.634;5.566;2023-04-03T14:18:16;9.25;;;4.75;;
62268;SDS011;56517;51.634;5.566;2023-04-03T14:19:38;10.93;;;5.25;;
62268;SDS011;56517;51.634;5.566;2023-04-03T14:21:41;10.80;;;4.80;;
62268;SDS011;56517;51.634;5.566;2023-04-03T14:23:06;7.93;;;4.85;;
62268;SDS011;56517;51.634;5.566;2023-04-03T14:24:27;7.63;;;4.50;;
62268;SDS011;56517;51.634;5.566;2023-04-03T14:25:48;7.65;;;4.45;;
62268;SDS011;56517;51.634;5.566;2023-04-03T14:27:15;7.82;;;4.95;;
62268;SDS011;56517;51.634;5.566;2023-04-03T14:28:36;5.55;;;4.60;;
62268;SDS011;56517;51.634;5.566;2023-04-03T14:29:58;6.32;;;4.35;;
62268;SDS011;56517;51.634;5.566;2023-04-03T14:31:22;8.27;;;4.63;;
62268;SDS011;56517;51.634;5.566;2023-04-03T14:32:49;6.07;;;4.50;;
62268;SDS011;56517;51.634;5.566;2023-04-03T14:34:11;9.85;;;4.78;;
62268;SDS011;56517;51.634;5.566;2023-04-03T14:35:36;7.80;;;4.63;;
62268;SDS011;56517;51.634;5.566;2023-04-03T14:36:57;7.45;;;4.80;;
62268;SDS011;56517;51.634;5.566;2023-04-03T14:38:25;5.88;;;4.00;;
62268;SDS011;56517;51.634;5.566;2023-04-03T14:39:46;6.93;;;4.75;;
62268;SDS011;56517;51.634;5.566;2023-04-03T14:41:26;7.18;;;4.95;;
62268;SDS011;56517;51.634;5.566;2023-04-03T14:42:49;8.88;;;5.22;;
62268;SDS011;56517;51.634;5.566;2023-04-03T14:44:11;10.70;;;5.18;;
62268;SDS011;56517;51.634;5.566;2023-04-03T14:45:32;11.63;;;5.00;;
62268;SDS011;56517;51.634;5.566;2023-04-03T14:46:53;7.13;;;4.60;;
62268;SDS011;56517;51.634;5.566;2023-04-03T14:52:09;9.68;;;5.47;;
62268;SDS011;56517;51.634;5.566;2023-04-03T14:53:36;11.95;;;5.40;;
62268;SDS011;56517;51.634;5.566;2023-04-03T14:54:58;7.45;;;4.32;;
62268;SDS011;56517;51.634;5.566;2023-04-03T14:56:20;5.83;;;4.23;;
62268;SDS011;56517;51.634;5.566;2023-04-03T14:57:42;6.55;;;4.22;;
62268;SDS011;56517;51.634;5.566;2023-04-03T14:59:04;7.57;;;4.75;;
62268;SDS011;56517;51.634;5.566;2023-04-03T15:03:49;12.48;;;5.00;;